createdAt,value
2023-02-22T00:02:25.752Z,7.80
2023-02-22T00:05:03.369Z,7.60
2023-02-22T00:07:36.005Z,7.90
2023-02-22T00:10:13.507Z,7.08
2023-02-22T00:12:45.191Z,7.37
2023-02-22T00:15:17.199Z,7.62
2023-02-22T00:17:52.801Z,8.05
2023-02-22T00:20:25.386Z,8.00
2023-02-22T00:23:01.661Z,8.13
2023-02-22T00:25:33.271Z,7.30
2023-02-22T00:28:06.788Z,6.67
2023-02-22T00:30:44.137Z,8.00
2023-02-22T00:33:16.127Z,7.47
2023-02-22T00:35:50.042Z,7.83
2023-02-22T00:38:22.129Z,7.07
2023-02-22T00:40:53.563Z,6.97
2023-02-22T00:43:28.794Z,7.33
2023-02-22T00:46:00.404Z,7.43
2023-02-22T00:48:34.557Z,7.15
2023-02-22T00:51:07.311Z,7.20
2023-02-22T00:53:39.715Z,6.55
2023-02-22T00:56:17.404Z,7.27
2023-02-22T00:58:50.414Z,6.93
2023-02-22T01:01:22.642Z,6.73
2023-02-22T01:03:57.176Z,6.58
2023-02-22T01:06:30.367Z,6.95
2023-02-22T01:09:05.401Z,6.77
2023-02-22T01:11:36.957Z,6.77
2023-02-22T01:14:12.192Z,6.85
2023-02-22T01:16:46.044Z,7.03
2023-02-22T01:19:17.951Z,7.85
2023-02-22T01:21:49.502Z,7.05
2023-02-22T01:24:21.465Z,7.35
2023-02-22T01:26:53.647Z,8.10
2023-02-22T01:29:26.206Z,7.28
2023-02-22T01:31:58.625Z,6.63
2023-02-22T01:34:30.357Z,6.90
2023-02-22T01:37:02.763Z,7.15
2023-02-22T01:39:35.889Z,7.93
2023-02-22T01:42:09.922Z,7.35
2023-02-22T01:44:43.746Z,8.45
2023-02-22T01:47:15.249Z,7.95
2023-02-22T01:49:47.862Z,7.35
2023-02-22T01:52:23.098Z,7.75
2023-02-22T01:54:55.839Z,7.50
2023-02-22T01:57:30.712Z,7.87
2023-02-22T02:00:10.412Z,7.25
2023-02-22T02:02:45.815Z,7.95
2023-02-22T02:05:17.439Z,7.97
2023-02-22T02:07:50.598Z,7.53
2023-02-22T02:10:25.426Z,7.40
2023-02-22T02:12:58.874Z,7.92
2023-02-22T02:15:31.400Z,8.17
2023-02-22T02:18:08.272Z,8.60
2023-02-22T02:20:45.149Z,8.10
2023-02-22T02:23:30.180Z,8.30
2023-02-22T02:26:09.359Z,8.20
2023-02-22T02:28:58.917Z,8.15
2023-02-22T02:31:49.630Z,7.60
2023-02-22T02:34:25.503Z,7.80
2023-02-22T02:37:02.208Z,8.75
2023-02-22T02:39:37.168Z,8.03
2023-02-22T02:42:10.471Z,8.15
2023-02-22T02:44:44.950Z,8.20
2023-02-22T02:47:21.313Z,7.87
2023-02-22T02:49:53.570Z,7.83
2023-02-22T02:54:55.546Z,8.15
2023-02-22T02:57:29.226Z,8.08
2023-02-22T03:00:00.499Z,7.55
2023-02-22T03:02:43.156Z,7.10
2023-02-22T03:05:27.404Z,8.00
2023-02-22T03:08:03.049Z,7.20
2023-02-22T03:10:50.779Z,7.37
2023-02-22T03:13:27.571Z,8.30
2023-02-22T03:16:04.383Z,7.33
2023-02-22T03:18:46.124Z,7.30
2023-02-22T03:21:23.001Z,6.80
2023-02-22T03:23:58.642Z,7.80
2023-02-22T03:26:35.665Z,7.25
2023-02-22T03:29:09.219Z,7.30
2023-02-22T03:31:42.316Z,7.63
2023-02-22T03:34:16.444Z,7.40
2023-02-22T03:36:56.099Z,8.13
2023-02-22T03:39:31.436Z,8.25
2023-02-22T03:42:05.774Z,10.05
2023-02-22T03:44:40.795Z,12.43
2023-02-22T03:47:13.588Z,12.65
2023-02-22T03:49:47.921Z,10.65
2023-02-22T03:52:20.324Z,11.40
2023-02-22T03:54:53.799Z,11.20
2023-02-22T03:57:29.565Z,10.95
2023-02-22T04:00:10.255Z,10.05
2023-02-22T04:02:47.693Z,8.95
2023-02-22T04:05:24.962Z,9.00
2023-02-22T04:07:57.889Z,8.45
2023-02-22T04:10:30.672Z,8.95
2023-02-22T04:13:02.640Z,9.48
2023-02-22T04:15:36.022Z,9.05
2023-02-22T04:18:11.673Z,8.45
2023-02-22T04:20:43.636Z,8.23
2023-02-22T04:23:21.536Z,9.65
2023-02-22T04:25:53.902Z,10.95
2023-02-22T04:28:25.461Z,11.05
2023-02-22T04:31:03.790Z,10.40
2023-02-22T04:33:36.134Z,11.00
2023-02-22T04:36:08.636Z,13.60
2023-02-22T04:38:41.367Z,11.25
2023-02-22T04:41:13.464Z,10.95
2023-02-22T04:43:46.852Z,11.38
2023-02-22T04:46:25.576Z,11.05
2023-02-22T04:48:58.138Z,10.80
2023-02-22T04:51:32.761Z,10.87
2023-02-22T04:54:07.622Z,10.10
2023-02-22T04:56:40.573Z,9.85
2023-02-22T04:59:12.331Z,10.50
2023-02-22T05:01:48.012Z,11.80
2023-02-22T05:04:19.530Z,11.90
2023-02-22T05:06:52.740Z,10.95
2023-02-22T05:09:26.187Z,11.45
2023-02-22T05:11:57.876Z,12.73
2023-02-22T05:14:29.422Z,12.20
2023-02-22T05:17:00.968Z,12.75
2023-02-22T05:19:32.770Z,11.40
2023-02-22T05:22:04.323Z,12.13
2023-02-22T05:24:35.843Z,11.70
2023-02-22T05:27:07.589Z,12.50
2023-02-22T05:29:39.383Z,12.65
2023-02-22T05:32:12.370Z,13.32
2023-02-22T05:34:43.894Z,11.85
2023-02-22T05:37:16.252Z,12.80
2023-02-22T05:39:48.215Z,13.38
2023-02-22T05:42:20.580Z,12.95
2023-02-22T05:47:21.840Z,14.30
2023-02-22T05:49:53.191Z,15.33
2023-02-22T05:52:25.357Z,15.48
2023-02-22T05:54:57.313Z,14.95
2023-02-22T05:57:29.067Z,15.58
2023-02-22T06:00:00.624Z,14.03
2023-02-22T06:02:32.182Z,15.90
2023-02-22T06:05:03.926Z,14.85
2023-02-22T06:07:35.320Z,15.58
2023-02-22T06:10:07.258Z,18.85
2023-02-22T06:12:38.784Z,20.65
2023-02-22T06:15:11.011Z,21.33
2023-02-22T06:17:42.714Z,21.95
2023-02-22T06:20:16.164Z,19.25
2023-02-22T06:22:48.483Z,18.95
2023-02-22T06:27:49.733Z,17.70
2023-02-22T06:30:22.854Z,20.45
2023-02-22T06:32:54.891Z,18.55
2023-02-22T06:35:26.851Z,18.40
2023-02-22T06:37:58.389Z,16.52
2023-02-22T06:40:30.028Z,18.23
2023-02-22T06:43:01.490Z,16.97
2023-02-22T06:45:33.291Z,17.00
2023-02-22T06:48:05.007Z,17.37
2023-02-22T06:50:36.776Z,17.27
2023-02-22T06:53:08.318Z,16.63
2023-02-22T06:55:40.117Z,15.87
2023-02-22T06:58:11.622Z,15.85
2023-02-22T07:00:42.978Z,15.30
2023-02-22T07:03:14.983Z,15.03
2023-02-22T07:05:47.508Z,15.08
2023-02-22T07:08:18.848Z,15.43
2023-02-22T07:10:51.026Z,14.57
2023-02-22T07:15:53.715Z,11.50
2023-02-22T07:18:25.885Z,12.90
2023-02-22T07:20:58.874Z,12.03
2023-02-22T07:23:30.208Z,12.40
2023-02-22T07:26:03.034Z,11.63
2023-02-22T07:28:34.545Z,12.30
2023-02-22T07:31:06.499Z,12.50
2023-02-22T07:33:37.854Z,11.73
2023-02-22T07:36:10.631Z,10.28
2023-02-22T07:38:42.391Z,10.00
2023-02-22T07:41:13.975Z,10.35
2023-02-22T07:43:45.492Z,9.63
2023-02-22T07:46:17.452Z,9.20
2023-02-22T07:48:49.004Z,10.32
2023-02-22T07:51:21.176Z,9.55
2023-02-22T07:53:52.716Z,8.83
2023-02-22T07:56:24.472Z,8.43
2023-02-22T07:58:56.450Z,9.70
2023-02-22T08:01:28.457Z,8.75
2023-02-22T08:04:00.025Z,8.38
2023-02-22T08:06:32.526Z,7.83
2023-02-22T08:09:04.078Z,8.07
2023-02-22T08:11:35.625Z,8.80
2023-02-22T08:14:07.184Z,8.70
2023-02-22T08:16:38.747Z,8.08
2023-02-22T08:19:10.280Z,8.83
2023-02-22T08:21:41.834Z,9.05
2023-02-22T08:24:13.385Z,9.28
2023-02-22T08:26:47.809Z,8.60
2023-02-22T08:29:19.354Z,9.03
2023-02-22T08:31:54.548Z,8.28
2023-02-22T08:34:26.557Z,9.60
2023-02-22T08:36:57.933Z,8.95
2023-02-22T08:39:29.657Z,9.05
2023-02-22T08:42:01.002Z,9.07
2023-02-22T08:44:33.170Z,9.10
2023-02-22T08:47:05.353Z,9.13
2023-02-22T08:49:36.890Z,8.95
2023-02-22T08:52:08.497Z,9.25
2023-02-22T08:54:39.984Z,8.50
2023-02-22T08:57:11.954Z,8.68
2023-02-22T08:59:44.317Z,9.33
2023-02-22T09:02:18.165Z,8.60
2023-02-22T09:04:50.465Z,8.20
2023-02-22T09:07:21.839Z,8.65
2023-02-22T09:09:53.202Z,8.93
2023-02-22T09:12:25.206Z,9.05
2023-02-22T09:14:56.489Z,9.50
2023-02-22T09:17:28.042Z,8.80
2023-02-22T09:19:59.606Z,9.10
2023-02-22T09:22:31.146Z,9.40
2023-02-22T09:25:14.844Z,9.20
2023-02-22T09:27:48.380Z,9.45
2023-02-22T09:30:24.164Z,9.08
2023-02-22T09:32:56.779Z,9.15
2023-02-22T09:35:28.585Z,9.95
2023-02-22T09:38:01.144Z,10.45
2023-02-22T09:40:34.123Z,9.15
2023-02-22T09:43:09.770Z,9.53
2023-02-22T09:45:48.728Z,9.03
2023-02-22T09:48:22.461Z,9.95
2023-02-22T09:50:55.683Z,10.40
2023-02-22T09:53:31.134Z,10.08
2023-02-22T09:56:05.611Z,9.93
2023-02-22T09:58:43.143Z,10.20
2023-02-22T10:01:20.462Z,9.83
2023-02-22T10:03:55.042Z,10.63
2023-02-22T10:06:26.735Z,11.57
2023-02-22T10:09:00.535Z,10.75
2023-02-22T10:11:37.667Z,10.45
2023-02-22T10:14:16.731Z,10.80
2023-02-22T10:16:53.341Z,10.80
2023-02-22T10:19:29.189Z,10.85
2023-02-22T10:22:07.007Z,10.15
2023-02-22T10:24:45.679Z,10.60
2023-02-22T10:27:19.724Z,10.03
2023-02-22T10:29:53.436Z,9.63
2023-02-22T10:32:27.643Z,9.50
2023-02-22T10:35:00.488Z,10.32
2023-02-22T10:37:32.674Z,10.03
2023-02-22T10:42:36.976Z,9.38
2023-02-22T10:45:19.590Z,10.55
2023-02-22T10:47:51.342Z,9.43
2023-02-22T10:50:23.712Z,9.78
2023-02-22T10:52:56.128Z,10.48
2023-02-22T10:58:04.777Z,9.25
2023-02-22T11:00:38.340Z,10.03
2023-02-22T11:03:18.330Z,10.85
2023-02-22T11:05:49.819Z,8.95
2023-02-22T11:08:33.257Z,9.58
2023-02-22T11:11:06.844Z,9.73
2023-02-22T11:13:39.841Z,10.30
2023-02-22T11:16:21.103Z,10.18
2023-02-22T11:18:52.765Z,10.03
2023-02-22T11:21:24.740Z,10.83
2023-02-22T11:24:02.832Z,9.48
2023-02-22T11:26:38.741Z,9.63
2023-02-22T11:29:13.509Z,8.80
2023-02-22T11:31:46.049Z,8.55
2023-02-22T11:34:31.669Z,8.63
2023-02-22T11:37:16.221Z,8.75
2023-02-22T11:39:48.204Z,9.28
2023-02-22T11:42:29.563Z,9.58
2023-02-22T11:45:12.451Z,9.20
2023-02-22T11:47:53.289Z,9.25
2023-02-22T11:50:28.693Z,9.23
2023-02-22T11:53:10.797Z,8.70
2023-02-22T12:00:54.149Z,7.80
2023-02-22T12:03:35.059Z,7.95
2023-02-22T12:06:09.057Z,8.88
2023-02-22T12:08:47.672Z,8.28
2023-02-22T12:11:22.330Z,7.97
2023-02-22T12:14:09.698Z,6.83
2023-02-22T12:16:47.358Z,7.03
2023-02-22T12:19:23.339Z,6.97
2023-02-22T12:21:57.164Z,6.67
2023-02-22T12:24:33.507Z,6.65
2023-02-22T12:27:09.847Z,6.53
2023-02-22T12:29:43.995Z,7.00
2023-02-22T12:32:17.559Z,6.60
2023-02-22T12:34:50.784Z,6.53
2023-02-22T12:37:23.978Z,6.22
2023-02-22T12:40:01.320Z,5.67
2023-02-22T12:42:38.235Z,5.87
2023-02-22T12:45:17.086Z,5.50
2023-02-22T12:47:53.120Z,4.83
2023-02-22T12:50:26.420Z,5.67
2023-02-22T12:53:01.238Z,5.33
2023-02-22T12:55:35.844Z,5.10
2023-02-22T12:58:10.667Z,5.45
2023-02-22T13:00:46.296Z,5.47
2023-02-22T13:03:27.513Z,6.28
2023-02-22T13:06:02.986Z,6.80
2023-02-22T13:08:35.910Z,6.62
2023-02-22T13:11:16.458Z,6.97
2023-02-22T13:13:56.726Z,7.90
2023-02-22T13:16:33.781Z,6.92
2023-02-22T13:19:10.923Z,7.62
2023-02-22T13:21:46.694Z,7.20
2023-02-22T13:24:22.338Z,7.17
2023-02-22T13:26:55.437Z,7.03
2023-02-22T13:29:30.090Z,7.37
2023-02-22T13:32:06.135Z,7.25
2023-02-22T13:34:52.800Z,7.90
2023-02-22T13:37:37.666Z,7.12
2023-02-22T13:40:20.073Z,7.17
2023-02-22T13:43:01.245Z,7.87
2023-02-22T13:45:48.567Z,7.97
2023-02-22T13:48:29.452Z,8.05
2023-02-22T13:51:10.099Z,7.65
2023-02-22T13:53:45.406Z,7.45
2023-02-22T13:56:17.566Z,7.95
2023-02-22T13:58:54.177Z,7.23
2023-02-22T14:01:45.889Z,7.37
2023-02-22T14:04:36.655Z,6.65
2023-02-22T14:07:34.164Z,7.28
2023-02-22T14:10:05.711Z,7.30
2023-02-22T14:12:52.831Z,6.72
2023-02-22T14:15:30.038Z,6.80
2023-02-22T14:18:02.690Z,7.47
2023-02-22T14:20:37.080Z,7.15
2023-02-22T14:23:26.069Z,7.60
2023-02-22T14:25:58.042Z,7.17
2023-02-22T14:28:50.434Z,6.78
2023-02-22T14:34:08.544Z,7.50
2023-02-22T14:36:43.647Z,6.95
2023-02-22T14:39:17.983Z,7.10
2023-02-22T14:41:53.965Z,6.85
2023-02-22T14:44:27.462Z,7.03
2023-02-22T14:47:02.866Z,5.95
2023-02-22T14:49:37.451Z,5.80
2023-02-22T14:52:14.912Z,5.58
2023-02-22T14:54:53.443Z,4.70
2023-02-22T14:57:29.198Z,5.40
2023-02-22T15:00:23.642Z,4.80
2023-02-22T15:02:57.582Z,5.12
2023-02-22T15:05:31.428Z,5.50
2023-02-22T15:08:04.026Z,4.90
2023-02-22T15:10:43.002Z,4.65
2023-02-22T15:13:19.000Z,4.70
2023-02-22T15:15:51.388Z,5.53
2023-02-22T15:18:24.902Z,5.10
2023-02-22T15:20:58.315Z,5.87
2023-02-22T15:23:33.468Z,5.60
2023-02-22T15:26:04.807Z,5.20
2023-02-22T15:28:38.562Z,6.08
2023-02-22T15:31:24.411Z,5.95
2023-02-22T15:33:56.233Z,5.72
2023-02-22T15:36:31.187Z,6.20
2023-02-22T15:39:08.332Z,5.47
2023-02-22T15:41:39.649Z,6.70
2023-02-22T15:44:23.760Z,5.30
2023-02-22T15:46:57.110Z,7.03
2023-02-22T15:49:29.481Z,8.45
2023-02-22T15:52:06.847Z,8.27
2023-02-22T15:54:43.170Z,6.55
2023-02-22T15:57:17.743Z,7.30
2023-02-22T15:59:51.662Z,5.75
2023-02-22T16:02:30.414Z,6.33
2023-02-22T16:05:04.224Z,6.00
2023-02-22T16:07:39.122Z,6.08
2023-02-22T16:10:21.829Z,6.85
2023-02-22T16:13:04.444Z,6.72
2023-02-22T16:15:36.221Z,7.03
2023-02-22T16:18:25.807Z,8.15
2023-02-22T16:21:11.981Z,8.45
2023-02-22T16:23:47.536Z,7.87
2023-02-22T16:26:22.342Z,7.58
2023-02-22T16:28:56.329Z,8.40
2023-02-22T16:31:28.640Z,7.95
2023-02-22T16:34:01.090Z,7.62
2023-02-22T16:36:40.648Z,7.97
2023-02-22T16:39:15.551Z,7.62
2023-02-22T16:41:47.211Z,7.47
2023-02-22T16:44:18.971Z,7.80
2023-02-22T16:46:50.310Z,6.80
2023-02-22T16:49:23.503Z,6.70
2023-02-22T16:51:55.667Z,7.05
2023-02-22T16:54:30.701Z,6.97
2023-02-22T16:57:04.099Z,7.35
2023-02-22T16:59:38.450Z,6.83
2023-02-22T17:02:13.433Z,7.87
2023-02-22T17:04:49.398Z,8.10
2023-02-22T17:07:24.270Z,8.80
2023-02-22T17:09:58.454Z,8.10
2023-02-22T17:12:33.325Z,7.62
2023-02-22T17:15:05.240Z,7.80
2023-02-22T17:17:36.492Z,8.85
2023-02-22T17:20:12.602Z,8.40
2023-02-22T17:22:45.593Z,8.50
2023-02-22T17:25:21.263Z,8.70
2023-02-22T17:27:52.815Z,8.25
2023-02-22T17:30:24.607Z,8.73
2023-02-22T17:33:03.817Z,7.95
2023-02-22T17:35:37.302Z,8.18
2023-02-22T17:38:09.057Z,7.72
2023-02-22T17:40:41.884Z,7.90
2023-02-22T17:43:13.597Z,8.40
2023-02-22T17:45:46.182Z,10.50
2023-02-22T17:48:18.161Z,11.38
2023-02-22T17:50:51.121Z,15.45
2023-02-22T17:53:25.152Z,15.00
2023-02-22T17:55:58.371Z,14.18
2023-02-22T17:58:31.165Z,13.08
2023-02-22T18:01:02.863Z,12.93
2023-02-22T18:03:39.935Z,12.95
2023-02-22T18:06:18.025Z,13.40
2023-02-22T18:08:55.812Z,12.68
2023-02-22T18:11:28.935Z,13.30
2023-02-22T18:16:31.330Z,12.58
2023-02-22T18:19:03.377Z,13.43
2023-02-22T18:21:36.152Z,12.25
2023-02-22T18:24:09.185Z,11.03
2023-02-22T18:26:40.758Z,12.70
2023-02-22T18:29:12.855Z,12.35
2023-02-22T18:31:45.961Z,11.63
2023-02-22T18:34:18.007Z,10.37
2023-02-22T18:39:22.746Z,9.78
2023-02-22T18:41:54.176Z,11.45
2023-02-22T18:44:27.286Z,11.80
2023-02-22T18:46:59.652Z,12.47
2023-02-22T18:52:01.440Z,13.03
2023-02-22T18:54:33.284Z,14.03
2023-02-22T18:57:04.867Z,13.83
2023-02-22T18:59:38.846Z,13.58
2023-02-22T19:02:13.219Z,14.80
2023-02-22T19:04:45.847Z,15.60
2023-02-22T19:07:20.267Z,14.73
2023-02-22T19:09:52.431Z,15.88
2023-02-22T19:12:27.251Z,14.53
2023-02-22T19:14:59.627Z,13.80
2023-02-22T19:17:36.708Z,13.67
2023-02-22T19:20:10.878Z,12.77
2023-02-22T19:22:43.305Z,11.73
2023-02-22T19:25:15.048Z,11.30
2023-02-22T19:27:47.212Z,11.33
2023-02-22T19:30:19.585Z,11.10
2023-02-22T19:35:27.807Z,10.87
2023-02-22T19:38:00.180Z,10.03
2023-02-22T19:43:02.465Z,10.63
2023-02-22T19:48:04.537Z,8.90
2023-02-22T19:50:36.086Z,9.30
2023-02-22T19:53:07.843Z,9.37
2023-02-22T19:55:40.425Z,8.83
2023-02-22T20:00:43.114Z,8.83
2023-02-22T20:05:48.113Z,8.33
2023-02-22T20:08:20.837Z,9.05
2023-02-22T20:10:53.363Z,8.73
2023-02-22T20:13:24.963Z,7.90
2023-02-22T20:15:57.410Z,9.60
2023-02-22T20:18:28.886Z,9.78
2023-02-22T20:21:00.658Z,9.70
2023-02-22T20:23:32.810Z,9.38
2023-02-22T20:26:04.469Z,8.93
2023-02-22T20:28:37.139Z,8.85
2023-02-22T20:31:11.576Z,8.70
2023-02-22T20:33:43.470Z,8.35
2023-02-22T20:36:16.757Z,8.33
2023-02-22T20:38:48.672Z,8.10
2023-02-22T20:41:22.587Z,8.10
2023-02-22T20:43:55.665Z,8.00
2023-02-22T20:46:28.246Z,8.73
2023-02-22T20:49:00.788Z,8.00
2023-02-22T20:51:32.982Z,8.50
2023-02-22T20:54:04.743Z,8.13
2023-02-22T20:56:36.085Z,7.60
2023-02-22T20:59:08.460Z,7.30
2023-02-22T21:01:41.039Z,8.20
2023-02-22T21:04:13.715Z,7.45
2023-02-22T21:09:18.205Z,7.10
2023-02-22T21:11:50.720Z,7.83
2023-02-22T21:14:25.350Z,6.97
2023-02-22T21:16:57.566Z,7.08
2023-02-22T21:22:03.073Z,6.05
2023-02-22T21:24:36.101Z,6.85
2023-02-22T21:27:08.873Z,7.00
2023-02-22T21:29:41.209Z,7.07
2023-02-22T21:32:14.150Z,6.33
2023-02-22T21:34:45.954Z,6.20
2023-02-22T21:37:18.939Z,6.97
2023-02-22T21:39:51.926Z,6.20
2023-02-22T21:42:23.534Z,6.17
2023-02-22T21:44:56.447Z,6.17
2023-02-22T21:47:31.304Z,6.43
2023-02-22T21:50:03.861Z,6.63
2023-02-22T21:52:35.158Z,6.37
2023-02-22T21:55:08.747Z,6.20
2023-02-22T21:57:41.186Z,7.00
2023-02-22T22:00:17.647Z,7.60
2023-02-22T22:02:49.847Z,7.03
2023-02-22T22:08:07.488Z,5.75
2023-02-22T22:10:39.618Z,6.20
2023-02-22T22:13:11.784Z,6.40
2023-02-22T22:18:15.712Z,6.30
2023-02-22T22:20:51.781Z,6.20
2023-02-22T22:23:23.926Z,5.90
2023-02-22T22:26:02.213Z,6.12
2023-02-22T22:28:34.401Z,5.60
2023-02-22T22:31:06.835Z,5.65
2023-02-22T22:33:38.594Z,5.80
2023-02-22T22:36:11.926Z,5.78
2023-02-22T22:38:47.207Z,5.97
2023-02-22T22:41:19.706Z,5.93
2023-02-22T22:43:54.370Z,6.47
2023-02-22T22:46:26.537Z,5.92
2023-02-22T22:48:58.484Z,7.28
2023-02-22T22:51:33.409Z,5.95
2023-02-22T22:54:07.328Z,5.70
2023-02-22T22:56:39.622Z,6.17
2023-02-22T23:01:45.053Z,5.97
2023-02-22T23:04:18.237Z,6.00
2023-02-22T23:06:51.427Z,6.33
2023-02-22T23:09:24.819Z,5.42
2023-02-22T23:11:57.228Z,6.43
2023-02-22T23:14:31.393Z,6.13
2023-02-22T23:17:03.990Z,5.70
2023-02-22T23:19:36.769Z,5.83
2023-02-22T23:22:09.754Z,5.97
2023-02-22T23:24:44.783Z,6.50
2023-02-22T23:27:19.337Z,5.45
2023-02-22T23:29:52.660Z,7.30
2023-02-22T23:32:26.907Z,5.53
2023-02-22T23:34:58.568Z,6.00
2023-02-22T23:37:35.648Z,5.92
2023-02-22T23:40:17.233Z,6.27
2023-02-22T23:42:51.856Z,6.12
2023-02-22T23:45:24.861Z,6.27
2023-02-22T23:47:57.834Z,5.65
2023-02-22T23:50:30.214Z,6.63
2023-02-22T23:53:04.009Z,6.20
2023-02-22T23:55:39.280Z,6.30
2023-02-22T23:58:11.405Z,6.10
